Garden City, KS

10:17 PM CDT on korrik 03, 2015 (GMT -0500)
N0KQX | | Change Station
CLOSE
Current Station
Personal Weather Stations
Location: Garden City, KS
Elevation: 2839 ft
Nearby Weather Stations

Elev 2839 ft 37.97 °N, 100.85 °W | Updated 6 seconds ago

i kthjellet
i kthjellet
73.6 °F
Feels Like 75 °F
N
0.0
Era e paqendrueshme Era from JL
Gusts 0.0 mph

Sot
High -- | Low -- °F
--% Chance of Precip.
Yesterday
High -- | Low -- °F
Precip. -- ne
6:25 AM 9:09 PM
Waning Gibbous, 95% visible
Presioni 29.91 ne
Visioni 10.0 milje
Clouds i kthjellet
Indeksi I Nxehtesise 75 °F
Pika E Veses 66 °F
Lageshtira E ajrit 76%
Rainfall 0.00 ne
Snow Depth Not available.
UV 0 out of 12
Pollen 4.20 out of 12
Air Quality Not available.
Flu Activity Not available.
METAR KGCK 040254Z AUTO 11005KT 10SM CLR 22/18 A3001 RMK AO2 SLP128 60000 T02170178 53007

More Conditions Fewer Conditions

Presioni 29.91 ne
Visioni 10.0 milje
Clouds i kthjellet
Indeksi I Nxehtesise 75 °F
Pika E Veses 66 °F
Lageshtira E ajrit 76%
Rainfall 0.00 ne
Snow Depth Not available.
UV 0 out of 12
Pollen 4.20 out of 12
Air Quality Not available.
Flu Activity Not available.
METAR KGCK 040254Z AUTO 11005KT 10SM CLR 22/18 A3001 RMK AO2 SLP128 60000 T02170178 53007

More Conditions Fewer Conditions

10-Day Weather Forecast

×

Almanac

Astronomy

Jul. 03, 2015 Rise Set
Actual Time
Civil Twilight
Nautical Twilight
Astronomical Twilight
Moon
Length Of Visible Light
Length of Day
Tomorrow will be .
, % of the Moon is Illuminated

Today's Extremes

State Highs State Lows

Community

WunderPhotos

Upload Photos

1,834,909 photos uploaded!

WunderBlogs® & News

Nearby

Air Quality

  Air Quality AQ Index Pollutant
Not available.

Snow Depth

Station Depth Elevation

Earthquake Activity

City Distance Mag. Time & Date
Minimum magnitude displayed is 2.5.

Coastal Water Temperatures

Vend Temperatura

Stations

Nearby Weather Stations

Station Location Temp Ftohtesia E erses Pika E Veses Lageshtira E ajrit Era Precip. Elev te freskuara(Te Dhenat) Type